createdAt,value
2022-10-29T00:01:39.379Z,96425.88
2022-10-29T00:04:06.738Z,96417.44
2022-10-29T00:06:33.807Z,96418.38
2022-10-29T00:09:00.925Z,96414.25
2022-10-29T00:11:29.385Z,96426.38
2022-10-29T00:13:59.385Z,96425.34
2022-10-29T00:16:28.604Z,96425.25
2022-10-29T00:18:57.086Z,96426.97
2022-10-29T00:21:26.047Z,96420.34
2022-10-29T00:23:53.686Z,96421.53
2022-10-29T00:26:22.201Z,96419.69
2022-10-29T00:28:52.869Z,96414.25
2022-10-29T00:31:20.124Z,96414.13
2022-10-29T00:33:47.324Z,96413.66
2022-10-29T00:36:17.397Z,96414.34
2022-10-29T00:38:45.707Z,96411.78
2022-10-29T00:41:14.626Z,96406.03
2022-10-29T00:43:47.228Z,96404.53
2022-10-29T00:46:23.469Z,96403.13
2022-10-29T00:48:55.225Z,96400.38
2022-10-29T00:51:25.904Z,96402.47
2022-10-29T00:53:58.666Z,96408.78
2022-10-29T00:56:29.546Z,96408.34
2022-10-29T00:58:57.386Z,96418.97
2022-10-29T01:01:26.176Z,96409.38
2022-10-29T01:03:54.864Z,96405.09
2022-10-29T01:06:24.447Z,96413.19
2022-10-29T01:08:51.464Z,96409.59
2022-10-29T01:11:30.426Z,96415.16
2022-10-29T01:14:16.265Z,96409.50
2022-10-29T01:16:52.587Z,96410.88
2022-10-29T01:19:42.313Z,96405.91
2022-10-29T01:22:16.565Z,96402.22
2022-10-29T01:25:03.604Z,96397.81
2022-10-29T01:27:51.484Z,96388.41
2022-10-29T01:30:43.964Z,96387.69
2022-10-29T01:33:22.545Z,96389.06
2022-10-29T01:35:58.766Z,96385.22
2022-10-29T01:38:37.816Z,96379.69
2022-10-29T01:41:15.025Z,96368.75
2022-10-29T01:43:49.645Z,96373.69
2022-10-29T01:46:21.806Z,96369.88
2022-10-29T01:48:56.944Z,96367.81
2022-10-29T01:51:29.384Z,96364.50
2022-10-29T01:54:00.377Z,96371.16
2022-10-29T01:56:27.666Z,96366.66
2022-10-29T01:59:00.191Z,96360.78
2022-10-29T02:01:44.152Z,96360.78
2022-10-29T02:04:39.624Z,96371.91
2022-10-29T02:07:20.345Z,96370.09
2022-10-29T02:10:05.525Z,96376.13
2022-10-29T02:12:40.684Z,96373.59
2022-10-29T02:15:13.404Z,96364.16
2022-10-29T02:17:40.925Z,96359.19
2022-10-29T02:20:13.564Z,96356.63
2022-10-29T02:22:40.745Z,96361.00
2022-10-29T02:25:09.251Z,96361.16
2022-10-29T02:27:36.504Z,96355.94
2022-10-29T02:30:04.209Z,96355.94
2022-10-29T02:32:31.225Z,96361.81
2022-10-29T02:34:58.265Z,96360.34
2022-10-29T02:37:26.845Z,96357.44
2022-10-29T02:39:53.904Z,96348.22
2022-10-29T02:42:20.925Z,96351.47
2022-10-29T02:44:48.000Z,96346.81
2022-10-29T02:47:15.167Z,96349.03
2022-10-29T02:49:42.285Z,96353.63
2022-10-29T02:52:09.570Z,96349.59
2022-10-29T02:54:38.446Z,96346.94
2022-10-29T02:57:05.506Z,96344.66
2022-10-29T02:59:32.585Z,96343.16
2022-10-29T03:01:59.861Z,96340.72
2022-10-29T03:04:27.325Z,96339.56
2022-10-29T03:06:54.425Z,96339.06
2022-10-29T03:09:21.706Z,96334.56
2022-10-29T03:11:50.686Z,96333.16
2022-10-29T03:14:17.685Z,96328.66
2022-10-29T03:16:44.771Z,96337.75
2022-10-29T03:19:11.785Z,96334.28
2022-10-29T03:21:38.804Z,96339.91
2022-10-29T03:24:06.484Z,96339.00
2022-10-29T03:26:33.545Z,96344.06
2022-10-29T03:29:02.158Z,96336.00
2022-10-29T03:31:29.168Z,96344.63
2022-10-29T03:33:56.205Z,96339.56
2022-10-29T03:36:24.297Z,96332.88
2022-10-29T03:38:51.424Z,96338.41
2022-10-29T03:41:18.430Z,96333.84
2022-10-29T03:43:45.546Z,96340.19
2022-10-29T03:46:14.126Z,96343.28
2022-10-29T03:51:07.934Z,96338.06
2022-10-29T03:53:36.587Z,96332.41
2022-10-29T03:56:05.035Z,96337.81
2022-10-29T03:58:32.125Z,96327.53
2022-10-29T04:01:01.085Z,96331.91
2022-10-29T04:03:31.544Z,96329.69
2022-10-29T04:06:00.746Z,96328.53
2022-10-29T04:08:29.205Z,96330.25
2022-10-29T04:10:56.288Z,96333.38
2022-10-29T04:13:23.369Z,96334.50
2022-10-29T04:15:54.245Z,96334.38
2022-10-29T04:18:21.705Z,96346.69
2022-10-29T04:29:11.828Z,96340.97
2022-10-29T04:31:38.866Z,96348.72
2022-10-29T04:34:05.905Z,96342.63
2022-10-29T04:36:34.366Z,96344.88
2022-10-29T04:39:01.547Z,96350.75
2022-10-29T04:41:28.664Z,96342.91
2022-10-29T04:43:55.725Z,96350.50
2022-10-29T04:46:22.685Z,96346.47
2022-10-29T04:48:49.783Z,96353.84
2022-10-29T04:51:19.847Z,96354.88
2022-10-29T04:53:48.507Z,96354.56
2022-10-29T04:56:16.325Z,96352.03
2022-10-29T04:58:43.825Z,96351.03
2022-10-29T05:01:11.161Z,96353.53
2022-10-29T05:03:38.346Z,96346.09
2022-10-29T05:06:07.066Z,96349.84
2022-10-29T05:08:34.786Z,96350.44
2022-10-29T05:11:04.085Z,96348.69
2022-10-29T05:13:32.005Z,96346.47
2022-10-29T05:15:59.625Z,96349.34
2022-10-29T05:18:26.886Z,96344.41
2022-10-29T05:20:54.387Z,96339.59
2022-10-29T05:23:22.401Z,96337.16
2022-10-29T05:25:49.905Z,96344.22
2022-10-29T05:28:20.887Z,96338.03
2022-10-29T05:30:49.868Z,96340.59
2022-10-29T05:33:18.825Z,96340.00
2022-10-29T05:35:46.741Z,96337.50
2022-10-29T05:38:15.590Z,96332.78
2022-10-29T05:40:43.806Z,96337.03
2022-10-29T05:43:11.066Z,96334.50
2022-10-29T05:45:40.346Z,96335.19
2022-10-29T05:48:08.705Z,96327.72
2022-10-29T05:50:36.366Z,96327.47
2022-10-29T05:53:05.628Z,96333.38
2022-10-29T05:55:34.145Z,96340.38
2022-10-29T05:58:03.546Z,96344.75
2022-10-29T06:00:33.412Z,96338.38
2022-10-29T06:03:02.086Z,96341.91
2022-10-29T06:05:29.323Z,96348.31
2022-10-29T06:07:58.137Z,96343.03
2022-10-29T06:10:27.550Z,96347.50
2022-10-29T06:12:55.070Z,96349.94
2022-10-29T06:15:22.524Z,96347.75
2022-10-29T06:17:49.688Z,96340.72
2022-10-29T06:20:20.364Z,96348.97
2022-10-29T06:22:47.728Z,96348.72
2022-10-29T06:25:14.845Z,96347.56
2022-10-29T06:27:41.864Z,96344.88
2022-10-29T06:30:10.087Z,96351.63
2022-10-29T06:32:37.124Z,96342.03
2022-10-29T06:35:04.465Z,96345.56
2022-10-29T06:37:32.927Z,96341.16
2022-10-29T06:39:59.965Z,96342.91
2022-10-29T06:42:26.986Z,96345.56
2022-10-29T06:44:54.045Z,96348.81
2022-10-29T06:47:21.052Z,96349.25
2022-10-29T06:49:48.207Z,96352.16
2022-10-29T06:52:15.249Z,96350.63
2022-10-29T06:54:43.686Z,96347.81
2022-10-29T06:57:10.785Z,96358.09
2022-10-29T06:59:37.887Z,96356.38
2022-10-29T07:02:05.006Z,96358.38
2022-10-29T07:04:32.189Z,96355.03
2022-10-29T07:06:59.167Z,96358.50
2022-10-29T07:09:26.187Z,96358.66
2022-10-29T07:11:54.685Z,96359.91
2022-10-29T07:14:21.647Z,96363.97
2022-10-29T07:16:48.686Z,96370.59
2022-10-29T07:19:15.728Z,96369.78
2022-10-29T07:21:42.926Z,96376.94
2022-10-29T07:24:10.285Z,96370.59
2022-10-29T07:26:37.506Z,96379.63
2022-10-29T07:29:05.946Z,96380.53
2022-10-29T07:31:33.065Z,96379.25
2022-10-29T07:34:00.129Z,96384.25
2022-10-29T07:36:27.346Z,96382.25
2022-10-29T07:38:54.427Z,96381.44
2022-10-29T07:41:21.507Z,96374.63
2022-10-29T07:43:48.569Z,96373.31
2022-10-29T07:46:17.026Z,96375.44
2022-10-29T07:48:44.108Z,96375.56
2022-10-29T07:51:11.170Z,96376.19
2022-10-29T07:53:38.205Z,96380.84
2022-10-29T07:56:06.287Z,96383.56
2022-10-29T07:58:33.370Z,96397.66
2022-10-29T08:01:00.717Z,96392.75
2022-10-29T08:03:29.334Z,96390.53
2022-10-29T08:05:57.447Z,96385.69
2022-10-29T08:08:24.788Z,96385.56
2022-10-29T08:10:51.886Z,96390.63
2022-10-29T08:13:18.985Z,96388.13
2022-10-29T08:15:47.027Z,96383.47
2022-10-29T08:18:16.450Z,96386.56
2022-10-29T08:20:45.765Z,96390.66
2022-10-29T08:23:13.626Z,96387.91
2022-10-29T08:25:41.409Z,96385.38
2022-10-29T08:28:10.847Z,96390.34
2022-10-29T08:30:38.147Z,96388.16
2022-10-29T08:33:05.796Z,96389.75
2022-10-29T08:35:34.481Z,96391.75
2022-10-29T08:38:02.988Z,96381.31
2022-10-29T08:40:37.306Z,96385.91
2022-10-29T08:43:30.466Z,96381.19
2022-10-29T08:45:57.888Z,96381.59
2022-10-29T08:48:43.206Z,96387.00
2022-10-29T08:51:23.886Z,96384.09
2022-10-29T08:54:24.918Z,96381.34
2022-10-29T08:56:49.508Z,96383.28
2022-10-29T08:59:19.228Z,96386.81
2022-10-29T09:01:46.666Z,96384.94
2022-10-29T09:04:24.587Z,96388.81
2022-10-29T09:07:25.707Z,96387.34
2022-10-29T09:10:00.034Z,96380.44
2022-10-29T09:12:48.010Z,96376.97
2022-10-29T09:15:36.929Z,96367.66
2022-10-29T09:18:27.968Z,96368.41
2022-10-29T09:21:06.848Z,96369.25
2022-10-29T09:23:56.488Z,96367.97
2022-10-29T09:26:31.828Z,96360.00
2022-10-29T09:29:17.589Z,96359.25
2022-10-29T09:31:51.176Z,96358.41
2022-10-29T09:34:28.707Z,96355.53
2022-10-29T09:36:57.129Z,96352.34
2022-10-29T09:39:34.306Z,96343.00
2022-10-29T09:42:12.630Z,96354.25
2022-10-29T09:44:49.650Z,96345.19
2022-10-29T09:47:29.368Z,96345.72
2022-10-29T09:50:11.246Z,96346.16
2022-10-29T09:52:42.089Z,96351.00
2022-10-29T09:55:20.447Z,96348.28
2022-10-29T09:57:49.410Z,96346.13
2022-10-29T10:00:21.294Z,96346.47
2022-10-29T10:02:55.857Z,96345.59
2022-10-29T10:05:27.676Z,96351.75
2022-10-29T10:08:10.720Z,96343.69
2022-10-29T10:10:51.328Z,96345.28
2022-10-29T10:13:26.178Z,96345.03
2022-10-29T10:15:57.269Z,96355.16
2022-10-29T10:18:26.548Z,96356.53
2022-10-29T10:21:04.616Z,96342.06
2022-10-29T10:23:43.252Z,96346.34
2022-10-29T10:26:38.527Z,96334.78
2022-10-29T10:29:12.138Z,96336.75
2022-10-29T10:31:39.899Z,96337.44
2022-10-29T10:34:17.029Z,96332.16
2022-10-29T10:36:50.228Z,96335.25
2022-10-29T10:39:26.468Z,96328.09
2022-10-29T10:41:56.089Z,96320.66
2022-10-29T10:44:24.989Z,96324.31
2022-10-29T10:46:55.541Z,96319.25
2022-10-29T10:49:32.068Z,96315.06
2022-10-29T10:52:03.252Z,96312.28
2022-10-29T10:54:36.072Z,96313.34
2022-10-29T10:57:05.367Z,96316.88
2022-10-29T10:59:48.350Z,96308.53
2022-10-29T11:02:25.726Z,96304.00
2022-10-29T11:05:03.582Z,96294.63
2022-10-29T11:07:41.132Z,96296.25
2022-10-29T11:10:14.413Z,96291.94
2022-10-29T11:12:48.252Z,96295.94
2022-10-29T11:15:27.291Z,96289.50
2022-10-29T11:18:00.493Z,96286.50
2022-10-29T11:20:32.468Z,96283.59
2022-10-29T11:23:16.787Z,96290.25
2022-10-29T11:25:51.028Z,96279.16
2022-10-29T11:28:29.568Z,96276.06
2022-10-29T11:31:17.547Z,96269.91
2022-10-29T11:33:54.388Z,96264.88
2022-10-29T11:36:24.134Z,96269.38
2022-10-29T11:38:57.949Z,96257.16
2022-10-29T11:41:34.570Z,96256.06
2022-10-29T11:44:01.727Z,96259.28
2022-10-29T11:46:46.893Z,96246.50
2022-10-29T11:49:39.127Z,96241.94
2022-10-29T11:52:11.340Z,96245.47
2022-10-29T11:54:52.668Z,96245.97
2022-10-29T11:57:28.891Z,96239.78
2022-10-29T12:00:09.610Z,96239.31
2022-10-29T12:02:58.350Z,96234.50
2022-10-29T12:05:36.968Z,96232.66
2022-10-29T12:08:24.887Z,96237.41
2022-10-29T12:11:05.208Z,96237.41
2022-10-29T12:13:48.169Z,96243.69
2022-10-29T12:16:31.048Z,96237.97
2022-10-29T12:19:13.808Z,96241.34
2022-10-29T12:21:50.849Z,96231.75
2022-10-29T12:24:42.409Z,96225.06
2022-10-29T12:27:19.790Z,96233.28
2022-10-29T12:29:57.573Z,96220.97
2022-10-29T12:32:32.188Z,96218.06
2022-10-29T12:35:14.228Z,96216.16
2022-10-29T12:37:49.908Z,96200.41
2022-10-29T12:40:24.828Z,96204.94
2022-10-29T12:42:54.316Z,96201.22
2022-10-29T12:45:36.958Z,96203.63
2022-10-29T12:48:17.349Z,96203.91
2022-10-29T12:50:58.332Z,96202.28
2022-10-29T12:53:36.390Z,96201.22
2022-10-29T12:56:04.807Z,96188.66
2022-10-29T12:58:46.608Z,96190.00
2022-10-29T13:02:10.442Z,96188.38
2022-10-29T13:04:34.787Z,96191.31
2022-10-29T13:07:05.936Z,96189.72
2022-10-29T13:09:35.629Z,96186.25
2022-10-29T13:12:05.268Z,96185.19
2022-10-29T13:14:40.688Z,96186.78
2022-10-29T13:17:26.748Z,96189.75
2022-10-29T13:19:57.756Z,96186.28
2022-10-29T13:22:48.510Z,96182.25
2022-10-29T13:25:49.333Z,96190.28
2022-10-29T13:28:51.429Z,96186.22
2022-10-29T13:31:55.088Z,96181.28
2022-10-29T13:34:53.873Z,96181.84
2022-10-29T13:37:49.677Z,96167.66
2022-10-29T13:41:01.308Z,96165.22
2022-10-29T13:43:30.648Z,96165.19
2022-10-29T13:46:16.508Z,96171.56
2022-10-29T13:48:47.351Z,96161.72
2022-10-29T13:51:22.577Z,96161.72
2022-10-29T13:53:57.068Z,96167.84
2022-10-29T13:56:34.128Z,96160.66
2022-10-29T13:59:07.207Z,96158.50
2022-10-29T14:01:34.577Z,96160.38
2022-10-29T14:04:16.220Z,96156.34
2022-10-29T14:06:46.548Z,96156.06
2022-10-29T14:09:28.068Z,96156.34
2022-10-29T14:12:01.928Z,96157.44
2022-10-29T14:14:37.411Z,96159.00
2022-10-29T14:17:12.308Z,96154.72
2022-10-29T14:19:44.370Z,96160.34
2022-10-29T14:22:28.988Z,96155.50
2022-10-29T14:24:57.967Z,96154.41
2022-10-29T14:27:25.170Z,96159.25
2022-10-29T14:29:54.715Z,96160.19
2022-10-29T14:32:22.850Z,96157.75
2022-10-29T14:34:51.428Z,96157.16
2022-10-29T14:37:28.628Z,96162.97
2022-10-29T14:40:02.287Z,96156.25
2022-10-29T14:42:33.579Z,96158.38
2022-10-29T14:45:04.953Z,96154.69
2022-10-29T14:47:36.108Z,96154.72
2022-10-29T14:50:14.535Z,96147.88
2022-10-29T14:52:51.033Z,96153.50
2022-10-29T14:55:25.129Z,96152.72
2022-10-29T14:58:03.576Z,96151.66
2022-10-29T15:00:34.969Z,96147.13
2022-10-29T15:03:03.253Z,96146.59
2022-10-29T15:05:33.588Z,96144.66
2022-10-29T15:08:05.209Z,96150.81
2022-10-29T15:10:46.272Z,96146.03
2022-10-29T15:13:29.509Z,96147.94
2022-10-29T15:16:02.227Z,96145.75
2022-10-29T15:18:32.808Z,96154.31
2022-10-29T15:21:00.909Z,96144.72
2022-10-29T15:23:32.646Z,96146.19
2022-10-29T15:26:04.288Z,96148.03
2022-10-29T15:28:37.627Z,96148.09
2022-10-29T15:31:05.706Z,96147.88
2022-10-29T15:33:35.606Z,96151.31
2022-10-29T15:36:05.639Z,96149.69
2022-10-29T15:39:02.287Z,96146.53
2022-10-29T15:41:39.267Z,96138.41
2022-10-29T15:44:29.751Z,96143.66
2022-10-29T15:46:58.865Z,96143.31
2022-10-29T15:49:28.366Z,96139.00
2022-10-29T15:52:00.368Z,96140.28
2022-10-29T15:54:28.429Z,96145.81
2022-10-29T15:56:57.067Z,96142.31
2022-10-29T15:59:26.606Z,96144.59
2022-10-29T16:01:54.042Z,96143.19
2022-10-29T16:04:21.206Z,96144.19
2022-10-29T16:06:48.450Z,96139.06
2022-10-29T16:09:20.005Z,96138.44
2022-10-29T16:11:47.048Z,96145.84
2022-10-29T16:14:15.525Z,96141.81
2022-10-29T16:16:42.587Z,96137.22
2022-10-29T16:19:09.731Z,96139.59
2022-10-29T16:21:37.219Z,96145.88
2022-10-29T16:24:04.886Z,96142.03
2022-10-29T16:26:32.026Z,96142.16
2022-10-29T16:28:59.171Z,96142.38
2022-10-29T16:31:29.467Z,96139.94
2022-10-29T16:33:59.767Z,96150.84
2022-10-29T16:36:27.387Z,96149.25
2022-10-29T16:38:54.484Z,96144.41
2022-10-29T16:41:21.766Z,96145.38
2022-10-29T16:43:49.047Z,96143.69
2022-10-29T16:46:16.125Z,96143.91
2022-10-29T16:48:44.651Z,96154.72
2022-10-29T16:51:11.687Z,96151.19
2022-10-29T16:53:38.988Z,96149.25
2022-10-29T16:56:06.486Z,96150.06
2022-10-29T16:58:33.628Z,96151.03
2022-10-29T17:01:04.864Z,96147.41
2022-10-29T17:03:32.454Z,96155.28
2022-10-29T17:06:05.925Z,96154.38
2022-10-29T17:08:34.306Z,96154.88
2022-10-29T17:11:03.065Z,96152.94
2022-10-29T17:13:30.266Z,96150.53
2022-10-29T17:15:57.886Z,96158.19
2022-10-29T17:18:24.986Z,96163.97
2022-10-29T17:20:56.766Z,96161.25
2022-10-29T17:23:25.646Z,96161.41
2022-10-29T17:25:54.021Z,96165.31
2022-10-29T17:28:21.806Z,96159.69
2022-10-29T17:30:49.108Z,96165.00
2022-10-29T17:33:16.568Z,96160.97
2022-10-29T17:35:44.330Z,96159.63
2022-10-29T17:38:11.688Z,96162.19
2022-10-29T17:40:40.148Z,96165.53
2022-10-29T17:43:07.166Z,96167.63
2022-10-29T17:45:34.278Z,96162.25
2022-10-29T17:48:01.570Z,96171.91
2022-10-29T17:50:28.794Z,96178.25
2022-10-29T17:52:55.854Z,96176.22
2022-10-29T17:55:22.936Z,96175.09
2022-10-29T17:57:51.474Z,96173.94
2022-10-29T18:00:18.978Z,96181.56
2022-10-29T18:02:49.226Z,96179.63
2022-10-29T18:05:16.474Z,96181.81
2022-10-29T18:07:43.655Z,96179.94
2022-10-29T18:10:10.930Z,96188.16
2022-10-29T18:12:37.977Z,96183.34
2022-10-29T18:15:07.635Z,96179.63
2022-10-29T18:17:34.894Z,96187.84
2022-10-29T18:20:02.056Z,96184.13
2022-10-29T18:22:29.154Z,96188.06
2022-10-29T18:24:56.194Z,96193.84
2022-10-29T18:27:23.355Z,96197.31
2022-10-29T18:29:50.454Z,96193.94
2022-10-29T18:32:19.654Z,96189.03
2022-10-29T18:34:46.776Z,96180.72
2022-10-29T18:37:13.794Z,96189.84
2022-10-29T18:39:40.975Z,96189.38
2022-10-29T18:42:13.797Z,96189.94
2022-10-29T18:44:51.339Z,96189.13
2022-10-29T18:47:24.840Z,96190.66
2022-10-29T18:50:02.846Z,96189.84
2022-10-29T18:52:33.498Z,96183.97
2022-10-29T18:55:02.299Z,96190.56
2022-10-29T18:57:29.434Z,96183.88
2022-10-29T18:59:56.459Z,96177.63
2022-10-29T19:02:25.045Z,96175.38
2022-10-29T19:04:52.336Z,96178.16
2022-10-29T19:07:19.415Z,96177.59
2022-10-29T19:09:47.823Z,96181.38
2022-10-29T19:12:15.115Z,96176.50
2022-10-29T19:14:42.321Z,96178.00
2022-10-29T19:17:09.476Z,96174.28
2022-10-29T19:19:42.381Z,96179.84
2022-10-29T19:22:09.484Z,96179.47
2022-10-29T19:24:36.557Z,96180.06
2022-10-29T19:27:03.778Z,96179.59
2022-10-29T19:29:30.937Z,96172.44
2022-10-29T19:31:58.037Z,96185.97
2022-10-29T19:34:25.214Z,96182.97
2022-10-29T19:36:53.977Z,96186.78
2022-10-29T19:39:21.068Z,96177.06
2022-10-29T19:41:48.217Z,96168.97
2022-10-29T19:44:15.442Z,96172.69
2022-10-29T19:46:42.798Z,96179.25
2022-10-29T19:49:09.896Z,96180.75
2022-10-29T19:51:37.056Z,96174.22
2022-10-29T19:54:05.936Z,96180.72
2022-10-29T19:56:32.997Z,96180.84
2022-10-29T19:59:00.102Z,96178.91
2022-10-29T20:01:27.370Z,96178.44
2022-10-29T20:03:54.607Z,96173.38
2022-10-29T20:06:21.618Z,96170.16
2022-10-29T20:08:48.742Z,96178.38
2022-10-29T20:11:17.460Z,96175.38
2022-10-29T20:13:44.495Z,96174.56
2022-10-29T20:16:15.676Z,96174.22
2022-10-29T20:18:43.020Z,96171.59
2022-10-29T20:21:10.957Z,96173.50
2022-10-29T20:23:38.519Z,96166.28
2022-10-29T20:26:06.737Z,96171.00
2022-10-29T20:28:35.595Z,96172.03
2022-10-29T20:31:14.516Z,96171.00
2022-10-29T20:33:41.876Z,96175.16
2022-10-29T20:36:09.743Z,96172.84
2022-10-29T20:38:37.172Z,96171.59
2022-10-29T20:41:04.208Z,96175.75
2022-10-29T20:43:31.678Z,96167.09
2022-10-29T20:46:04.244Z,96167.09
2022-10-29T20:48:31.397Z,96167.91
2022-10-29T20:50:58.916Z,96172.41
2022-10-29T20:53:25.977Z,96174.59
2022-10-29T20:55:53.176Z,96168.91
2022-10-29T20:58:21.815Z,96163.41
2022-10-29T21:00:49.064Z,96166.28
2022-10-29T21:03:18.736Z,96165.34
2022-10-29T21:05:45.780Z,96168.59
2022-10-29T21:08:13.007Z,96167.78
2022-10-29T21:10:40.178Z,96168.81
2022-10-29T21:13:07.336Z,96164.91
2022-10-29T21:15:35.802Z,96165.94
2022-10-29T21:18:02.996Z,96166.97
2022-10-29T21:20:32.897Z,96165.66
2022-10-29T21:23:00.280Z,96164.84
2022-10-29T21:25:27.658Z,96163.22
2022-10-29T21:27:55.131Z,96165.28
2022-10-29T21:30:22.468Z,96162.97
2022-10-29T21:32:50.057Z,96161.00
2022-10-29T21:35:17.275Z,96167.94
2022-10-29T21:37:45.778Z,96165.53
2022-10-29T21:40:13.797Z,96171.06
2022-10-29T21:42:40.903Z,96163.44
2022-10-29T21:45:08.817Z,96168.75
2022-10-29T21:47:35.918Z,96165.53
2022-10-29T21:50:02.995Z,96162.53
2022-10-29T21:52:30.075Z,96161.50
2022-10-29T21:54:58.575Z,96161.81
2022-10-29T21:57:25.699Z,96159.75
2022-10-29T21:59:52.718Z,96155.72
2022-10-29T22:02:19.842Z,96160.94
2022-10-29T22:04:46.917Z,96157.91
2022-10-29T22:07:14.016Z,96153.88
2022-10-29T22:09:41.093Z,96152.84
2022-10-29T22:12:09.568Z,96157.78
2022-10-29T22:14:36.629Z,96154.44
2022-10-29T22:17:03.690Z,96154.91
2022-10-29T22:19:30.847Z,96155.06
2022-10-29T22:21:58.008Z,96154.47
2022-10-29T22:24:25.149Z,96146.28
2022-10-29T22:26:52.186Z,96135.56
2022-10-29T22:29:20.609Z,96137.09
2022-10-29T22:31:47.806Z,96142.16
2022-10-29T22:34:14.917Z,96131.28
2022-10-29T22:36:42.087Z,96126.16
2022-10-29T22:39:09.309Z,96129.06
2022-10-29T22:41:36.454Z,96124.56
2022-10-29T22:44:03.734Z,96122.63
2022-10-29T22:46:32.194Z,96126.41
2022-10-29T22:48:59.314Z,96127.22
2022-10-29T22:51:28.734Z,96127.81
2022-10-29T22:53:55.957Z,96120.78
2022-10-29T22:56:25.296Z,96118.03
2022-10-29T22:58:53.216Z,96112.50
2022-10-29T23:01:22.774Z,96116.75
2022-10-29T23:03:52.383Z,96128.06
2022-10-29T23:06:21.277Z,96128.97
2022-10-29T23:08:51.238Z,96133.47
2022-10-29T23:11:20.654Z,96130.13
2022-10-29T23:13:48.454Z,96131.50
2022-10-29T23:16:16.481Z,96128.50
2022-10-29T23:18:44.083Z,96126.09
2022-10-29T23:21:12.557Z,96122.97
2022-10-29T23:23:39.614Z,96117.56
2022-10-29T23:26:06.701Z,96113.75
2022-10-29T23:28:37.036Z,96113.59
2022-10-29T23:31:06.755Z,96112.22
2022-10-29T23:33:34.257Z,96107.28
2022-10-29T23:36:02.754Z,96111.53
2022-10-29T23:38:31.875Z,96110.38
2022-10-29T23:40:58.954Z,96111.19
2022-10-29T23:43:26.236Z,96117.28
2022-10-29T23:45:53.894Z,96120.03
2022-10-29T23:48:20.934Z,96118.66
2022-10-29T23:50:48.515Z,96119.03
2022-10-29T23:53:15.759Z,96116.59
2022-10-29T23:55:46.179Z,96115.44
2022-10-29T23:58:14.174Z,96120.16
